createdAt,value
2022-12-06T00:01:52.445Z,100521.59
2022-12-06T00:04:00.140Z,100519.91
2022-12-06T00:06:23.035Z,100520.72
2022-12-06T00:08:24.803Z,100512.78
2022-12-06T00:10:26.923Z,100522.38
2022-12-06T00:12:28.751Z,100507.84
2022-12-06T00:14:30.962Z,100511.97
2022-12-06T00:16:33.947Z,100504.03
2022-12-06T00:18:37.675Z,100509.50
2022-12-06T00:20:39.779Z,100503.78
2022-12-06T00:22:45.293Z,100508.94
2022-12-06T00:24:47.127Z,100508.34
2022-12-06T00:26:50.812Z,100501.53
2022-12-06T00:28:54.629Z,100503.75
2022-12-06T00:31:00.369Z,100496.13
2022-12-06T00:33:02.483Z,100498.03
2022-12-06T00:35:04.711Z,100497.19
2022-12-06T00:37:06.862Z,100505.63
2022-12-06T00:39:11.584Z,100494.13
2022-12-06T00:41:18.447Z,100508.66
2022-12-06T00:43:20.580Z,100504.53
2022-12-06T00:45:22.434Z,100510.28
2022-12-06T00:47:24.242Z,100498.53
2022-12-06T00:49:26.493Z,100498.47
2022-12-06T00:51:30.752Z,100492.81
2022-12-06T00:53:32.709Z,100490.84
2022-12-06T00:55:34.877Z,100496.91
2022-12-06T00:57:36.685Z,100488.72
2022-12-06T00:59:38.463Z,100477.22
2022-12-06T01:01:41.480Z,100485.94
2022-12-06T01:03:45.028Z,100474.41
2022-12-06T01:05:49.693Z,100484.59
2022-12-06T01:07:51.832Z,100476.88
2022-12-06T01:09:53.622Z,100474.41
2022-12-06T01:11:55.717Z,100455.28
2022-12-06T01:13:58.471Z,100464.91
2022-12-06T01:16:08.363Z,100464.13
2022-12-06T01:18:10.247Z,100460.59
2022-12-06T01:20:12.487Z,100459.53
2022-12-06T01:22:14.310Z,100459.25
2022-12-06T01:24:16.469Z,100448.53
2022-12-06T01:26:33.153Z,100443.94
2022-12-06T01:28:35.437Z,100449.66
2022-12-06T01:30:40.008Z,100444.25
2022-12-06T01:32:42.061Z,100440.22
2022-12-06T01:34:45.353Z,100432.84
2022-12-06T01:36:47.091Z,100436.81
2022-12-06T01:38:54.287Z,100437.91
2022-12-06T01:40:56.236Z,100441.13
2022-12-06T01:42:58.046Z,100436.25
2022-12-06T01:45:00.669Z,100444.97
2022-12-06T01:47:02.590Z,100436.78
2022-12-06T01:49:04.294Z,100436.75
2022-12-06T01:51:09.534Z,100438.38
2022-12-06T01:53:13.145Z,100423.72
2022-12-06T01:55:17.031Z,100416.94
2022-12-06T01:57:19.262Z,100417.19
2022-12-06T01:59:22.469Z,100425.81
2022-12-06T02:01:27.129Z,100427.19
2022-12-06T02:03:32.190Z,100431.06
2022-12-06T02:05:40.726Z,100412.00
2022-12-06T02:07:44.605Z,100422.00
2022-12-06T02:09:47.855Z,100415.19
2022-12-06T02:11:49.633Z,100414.88
2022-12-06T02:13:52.001Z,100416.88
2022-12-06T02:16:16.012Z,100415.41
2022-12-06T02:18:41.216Z,100413.19
2022-12-06T02:20:55.266Z,100409.66
2022-12-06T02:23:30.830Z,100403.88
2022-12-06T02:26:10.533Z,100406.66
2022-12-06T02:28:34.728Z,100400.66
2022-12-06T02:30:46.090Z,100397.34
2022-12-06T02:33:00.414Z,100395.19
2022-12-06T02:35:34.525Z,100394.31
2022-12-06T02:37:58.622Z,100400.13
2022-12-06T02:40:08.081Z,100397.78
2022-12-06T02:42:26.113Z,100395.25
2022-12-06T02:44:42.200Z,100388.19
2022-12-06T02:46:44.856Z,100391.72
2022-12-06T02:48:49.786Z,100386.63
2022-12-06T02:51:00.112Z,100378.88
2022-12-06T02:53:04.284Z,100375.88
2022-12-06T02:55:08.478Z,100361.41
2022-12-06T02:57:10.279Z,100368.53
2022-12-06T02:59:12.458Z,100361.00
2022-12-06T03:01:37.841Z,100360.97
2022-12-06T03:03:51.512Z,100347.53
2022-12-06T03:06:02.571Z,100353.88
2022-12-06T03:08:17.555Z,100351.34
2022-12-06T03:10:43.615Z,100347.22
2022-12-06T03:12:57.534Z,100348.78
2022-12-06T03:15:11.989Z,100354.28
2022-12-06T03:17:44.674Z,100352.06
2022-12-06T03:19:51.307Z,100356.47
2022-12-06T03:22:15.124Z,100349.94
2022-12-06T03:24:17.698Z,100349.94
2022-12-06T03:26:24.057Z,100355.94
2022-12-06T03:28:27.284Z,100342.28
2022-12-06T03:30:33.001Z,100352.16
2022-12-06T03:32:37.493Z,100341.50
2022-12-06T03:34:43.748Z,100343.16
2022-12-06T03:36:49.118Z,100330.28
2022-12-06T03:38:58.016Z,100327.59
2022-12-06T03:41:05.613Z,100345.69
2022-12-06T03:43:07.979Z,100327.56
2022-12-06T03:45:12.244Z,100316.63
2022-12-06T03:47:37.017Z,100326.94
2022-12-06T03:49:43.301Z,100339.75
2022-12-06T03:51:46.179Z,100337.94
2022-12-06T03:53:53.641Z,100340.88
2022-12-06T03:55:55.470Z,100332.94
2022-12-06T03:57:57.426Z,100320.47
2022-12-06T03:59:59.773Z,100319.34
2022-12-06T04:02:01.996Z,100323.56
2022-12-06T04:04:04.499Z,100325.44
2022-12-06T04:06:07.806Z,100317.22
2022-12-06T04:08:09.649Z,100306.31
2022-12-06T04:10:11.787Z,100314.69
2022-12-06T04:12:32.342Z,100314.16
2022-12-06T04:14:39.325Z,100321.03
2022-12-06T04:16:59.591Z,100310.44
2022-12-06T04:19:01.698Z,100314.47
2022-12-06T04:21:23.088Z,100317.44
2022-12-06T04:23:26.110Z,100314.16
2022-12-06T04:25:27.869Z,100305.16
2022-12-06T04:27:48.077Z,100308.47
2022-12-06T04:30:08.982Z,100307.28
2022-12-06T04:32:29.223Z,100303.22
2022-12-06T04:34:50.146Z,100299.00
2022-12-06T04:37:10.822Z,100301.03
2022-12-06T04:39:17.576Z,100289.88
2022-12-06T04:41:41.318Z,100304.38
2022-12-06T04:43:43.060Z,100289.25
2022-12-06T04:45:45.190Z,100313.16
2022-12-06T04:47:47.137Z,100301.69
2022-12-06T04:49:49.253Z,100301.34
2022-12-06T04:51:52.229Z,100301.88
2022-12-06T04:53:54.073Z,100293.97
2022-12-06T04:55:56.347Z,100282.78
2022-12-06T04:57:58.095Z,100292.63
2022-12-06T05:00:00.278Z,100298.03
2022-12-06T05:02:02.763Z,100301.38
2022-12-06T05:04:04.801Z,100278.69
2022-12-06T05:06:06.953Z,100292.63
2022-12-06T05:08:10.264Z,100289.63
2022-12-06T05:10:12.175Z,100274.03
2022-12-06T05:12:14.004Z,100279.16
2022-12-06T05:14:16.125Z,100264.19
2022-12-06T05:16:18.092Z,100272.28
2022-12-06T05:18:20.823Z,100255.19
2022-12-06T05:20:23.430Z,100232.50
2022-12-06T05:22:25.262Z,100272.47
2022-12-06T05:24:27.364Z,100270.34
2022-12-06T05:26:29.463Z,100264.59
2022-12-06T05:28:31.693Z,100266.47
2022-12-06T05:30:33.812Z,100260.72
2022-12-06T05:32:35.575Z,100255.53
2022-12-06T05:34:37.813Z,100236.50
2022-12-06T05:36:39.986Z,100236.94
2022-12-06T05:38:45.732Z,100244.00
2022-12-06T05:40:51.293Z,100253.31
2022-12-06T05:42:53.050Z,100252.91
2022-12-06T05:44:54.799Z,100249.00
2022-12-06T05:46:57.170Z,100249.53
2022-12-06T05:48:58.953Z,100254.72
2022-12-06T05:51:00.780Z,100241.59
2022-12-06T05:53:03.716Z,100247.94
2022-12-06T05:55:05.691Z,100238.44
2022-12-06T05:57:07.481Z,100235.16
2022-12-06T05:59:09.709Z,100236.84
2022-12-06T06:01:11.638Z,100235.72
2022-12-06T06:03:13.820Z,100232.41
2022-12-06T06:05:16.214Z,100227.22
2022-12-06T06:07:17.980Z,100210.56
2022-12-06T06:09:20.202Z,100221.88
2022-12-06T06:11:22.058Z,100222.09
2022-12-06T06:13:24.015Z,100220.28
2022-12-06T06:15:26.219Z,100222.41
2022-12-06T06:17:27.988Z,100224.34
2022-12-06T06:19:30.191Z,100238.69
2022-12-06T06:21:32.445Z,100238.44
2022-12-06T06:23:34.290Z,100234.97
2022-12-06T06:25:39.861Z,100242.31
2022-12-06T06:27:42.034Z,100246.31
2022-12-06T06:29:45.611Z,100240.91
2022-12-06T06:31:47.628Z,100239.78
2022-12-06T06:33:50.020Z,100247.88
2022-12-06T06:35:51.759Z,100228.63
2022-12-06T06:37:53.528Z,100239.22
2022-12-06T06:39:56.458Z,100241.91
2022-12-06T06:41:58.373Z,100239.38
2022-12-06T06:44:00.260Z,100231.59
2022-12-06T06:46:04.639Z,100235.28
2022-12-06T06:48:06.642Z,100226.91
2022-12-06T06:50:08.721Z,100227.16
2022-12-06T06:52:10.934Z,100222.25
2022-12-06T06:54:12.950Z,100221.97
2022-12-06T06:56:15.382Z,100226.81
2022-12-06T06:58:17.538Z,100233.09
2022-12-06T07:00:19.419Z,100228.22
2022-12-06T07:02:21.188Z,100230.88
2022-12-06T07:04:23.425Z,100220.53
2022-12-06T07:06:25.310Z,100232.44
2022-12-06T07:08:28.746Z,100230.84
2022-12-06T07:10:31.710Z,100217.56
2022-12-06T07:12:33.526Z,100227.31
2022-12-06T07:14:35.354Z,100192.81
2022-12-06T07:16:37.702Z,100212.38
2022-12-06T07:18:39.595Z,100223.25
2022-12-06T07:20:41.394Z,100207.44
2022-12-06T07:22:43.605Z,100212.34
2022-12-06T07:24:50.780Z,100213.94
2022-12-06T07:26:56.848Z,100209.53
2022-12-06T07:28:59.926Z,100213.31
2022-12-06T07:31:14.379Z,100218.31
2022-12-06T07:33:16.201Z,100205.09
2022-12-06T07:35:18.055Z,100214.56
2022-12-06T07:37:20.761Z,100207.94
2022-12-06T07:39:22.914Z,100213.22
2022-12-06T07:41:46.570Z,100207.22
2022-12-06T07:44:08.779Z,100195.97
2022-12-06T07:46:11.817Z,100205.22
2022-12-06T07:48:14.124Z,100193.78
2022-12-06T07:50:18.773Z,100186.75
2022-12-06T07:52:21.093Z,100187.56
2022-12-06T07:54:24.161Z,100180.13
2022-12-06T07:56:26.379Z,100185.22
2022-12-06T07:58:28.587Z,100189.88
2022-12-06T08:00:30.723Z,100186.66
2022-12-06T08:02:32.924Z,100189.53
2022-12-06T08:04:35.311Z,100196.06
2022-12-06T08:06:37.406Z,100201.44
2022-12-06T08:08:39.666Z,100194.03
2022-12-06T08:10:41.518Z,100181.28
2022-12-06T08:12:43.656Z,100177.19
2022-12-06T08:14:45.528Z,100188.75
2022-12-06T08:16:47.259Z,100197.19
2022-12-06T08:18:49.772Z,100176.16
2022-12-06T08:20:53.301Z,100189.16
2022-12-06T08:22:55.099Z,100183.53
2022-12-06T08:24:57.320Z,100185.06
2022-12-06T08:27:00.222Z,100179.03
2022-12-06T08:29:01.949Z,100186.28
2022-12-06T08:31:26.395Z,100175.19
2022-12-06T08:33:28.748Z,100188.28
2022-12-06T08:35:30.922Z,100195.34
2022-12-06T08:37:34.386Z,100191.56
2022-12-06T08:39:36.563Z,100171.22
2022-12-06T08:41:58.448Z,100187.78
2022-12-06T08:44:02.817Z,100188.28
2022-12-06T08:46:04.734Z,100175.81
2022-12-06T08:48:06.562Z,100185.53
2022-12-06T08:50:09.153Z,100175.16
2022-12-06T08:52:11.074Z,100187.94
2022-12-06T08:54:15.271Z,100170.94
2022-12-06T08:56:18.923Z,100180.72
2022-12-06T08:58:20.671Z,100168.97
2022-12-06T09:00:22.838Z,100172.53
2022-12-06T09:02:24.983Z,100172.72
2022-12-06T09:04:28.039Z,100175.69
2022-12-06T09:06:30.538Z,100175.91
2022-12-06T09:08:32.717Z,100173.56
2022-12-06T09:10:34.493Z,100164.41
2022-12-06T09:12:36.339Z,100159.72
2022-12-06T09:14:38.631Z,100146.25
2022-12-06T09:16:43.519Z,100143.63
2022-12-06T09:18:46.459Z,100155.09
2022-12-06T09:20:48.642Z,100144.94
2022-12-06T09:22:50.428Z,100132.91
2022-12-06T09:24:52.210Z,100141.91
2022-12-06T09:26:54.469Z,100142.59
2022-12-06T09:28:57.098Z,100133.19
2022-12-06T09:30:59.028Z,100122.16
2022-12-06T09:33:01.249Z,100143.88
2022-12-06T09:35:03.157Z,100142.13
2022-12-06T09:37:12.029Z,100137.47
2022-12-06T09:39:18.631Z,100130.59
2022-12-06T09:41:39.133Z,100126.53
2022-12-06T09:44:02.771Z,100129.00
2022-12-06T09:46:42.359Z,100119.38
2022-12-06T09:48:53.510Z,100118.19
2022-12-06T09:50:58.350Z,100113.84
2022-12-06T09:53:19.257Z,100113.91
2022-12-06T09:55:35.296Z,100105.69
2022-12-06T09:57:42.996Z,100118.72
2022-12-06T10:00:22.108Z,100113.25
2022-12-06T10:03:02.031Z,100115.69
2022-12-06T10:05:22.098Z,100106.97
2022-12-06T10:07:29.896Z,100101.88
2022-12-06T10:09:40.809Z,100100.59
2022-12-06T10:11:54.664Z,100090.50
2022-12-06T10:14:21.423Z,100088.22
2022-12-06T10:16:41.613Z,100080.94
2022-12-06T10:19:23.357Z,100076.09
2022-12-06T10:21:42.437Z,100064.84
2022-12-06T10:24:12.195Z,100053.72
2022-12-06T10:26:21.950Z,100045.84
2022-12-06T10:28:39.258Z,100050.09
2022-12-06T10:30:52.405Z,100054.22
2022-12-06T10:33:27.688Z,100045.56
2022-12-06T10:35:43.300Z,100048.81
2022-12-06T10:38:08.901Z,100042.16
2022-12-06T10:40:21.163Z,100047.06
2022-12-06T10:42:34.960Z,100048.69
2022-12-06T10:44:44.579Z,100049.66
2022-12-06T10:47:05.305Z,100041.94
2022-12-06T10:49:24.003Z,100035.09
2022-12-06T10:51:48.780Z,100032.25
2022-12-06T10:54:02.035Z,100027.31
2022-12-06T10:56:13.834Z,100015.78
2022-12-06T10:58:25.136Z,100010.25
2022-12-06T11:00:31.124Z,100013.31
2022-12-06T11:02:58.902Z,100007.38
2022-12-06T11:05:04.680Z,100005.53
2022-12-06T11:07:16.234Z,100000.41
2022-12-06T11:09:38.023Z,100007.66
2022-12-06T11:11:41.399Z,100005.78
2022-12-06T11:14:00.411Z,100002.41
2022-12-06T11:16:05.995Z,100009.34
2022-12-06T11:18:13.918Z,99991.81
2022-12-06T11:20:22.959Z,100010.41
2022-12-06T11:22:41.109Z,100005.19
2022-12-06T11:24:50.782Z,100000.34
2022-12-06T11:27:00.915Z,99994.78
2022-12-06T11:29:12.823Z,99989.13
2022-12-06T11:31:28.139Z,99998.78
2022-12-06T11:33:33.360Z,99993.38
2022-12-06T11:35:35.203Z,99985.13
2022-12-06T11:37:41.442Z,99982.06
2022-12-06T11:39:52.713Z,99973.63
2022-12-06T11:41:57.685Z,99976.13
2022-12-06T11:43:59.997Z,99976.69
2022-12-06T11:46:05.791Z,99976.78
2022-12-06T11:48:19.848Z,99973.22
2022-12-06T11:50:22.999Z,99974.78
2022-12-06T11:52:37.399Z,99973.88
2022-12-06T11:54:44.441Z,99967.97
2022-12-06T11:56:47.009Z,99970.34
2022-12-06T11:59:21.723Z,99969.97
2022-12-06T12:01:47.653Z,99969.66
2022-12-06T12:03:49.603Z,99961.31
2022-12-06T12:05:51.988Z,99959.25
2022-12-06T12:08:00.810Z,99960.06
2022-12-06T12:10:22.539Z,99966.19
2022-12-06T12:12:56.161Z,99961.00
2022-12-06T12:14:59.012Z,99960.19
2022-12-06T12:17:03.336Z,99960.03
2022-12-06T12:19:49.386Z,99954.66
2022-12-06T12:21:54.609Z,99957.53
2022-12-06T12:23:57.846Z,99939.91
2022-12-06T12:26:14.674Z,99943.94
2022-12-06T12:28:26.686Z,99942.03
2022-12-06T12:30:36.920Z,99944.47
2022-12-06T12:32:38.760Z,99934.66
2022-12-06T12:34:42.968Z,99925.94
2022-12-06T12:36:50.950Z,99926.22
2022-12-06T12:38:59.112Z,99924.38
2022-12-06T12:41:19.692Z,99926.31
2022-12-06T12:43:24.955Z,99919.84
2022-12-06T12:45:27.859Z,99912.47
2022-12-06T12:47:32.085Z,99909.00
2022-12-06T12:49:36.405Z,99922.84
2022-12-06T12:51:41.435Z,99915.50
2022-12-06T12:53:55.083Z,99924.16
2022-12-06T12:56:13.110Z,99919.34
2022-12-06T12:58:14.866Z,99930.16
2022-12-06T13:00:30.988Z,99913.59
2022-12-06T13:02:36.011Z,99919.19
2022-12-06T13:05:30.804Z,99909.94
2022-12-06T13:07:27.758Z,99907.94
2022-12-06T13:09:55.455Z,99900.97
2022-12-06T13:12:05.259Z,99898.50
2022-12-06T13:14:18.064Z,99889.16
2022-12-06T13:16:27.732Z,99884.53
2022-12-06T13:18:38.904Z,99886.59
2022-12-06T13:20:41.410Z,99895.25
2022-12-06T13:22:45.496Z,99887.56
2022-12-06T13:24:56.675Z,99894.13
2022-12-06T13:27:02.473Z,99864.72
2022-12-06T13:29:31.834Z,99891.81
2022-12-06T13:31:40.142Z,99893.31
2022-12-06T13:33:48.493Z,99883.03
2022-12-06T13:36:06.450Z,99879.78
2022-12-06T13:38:25.982Z,99885.09
2022-12-06T13:40:46.083Z,99883.66
2022-12-06T13:42:48.324Z,99881.34
2022-12-06T13:44:50.067Z,99880.63
2022-12-06T13:47:27.223Z,99884.69
2022-12-06T13:49:48.598Z,99884.06
2022-12-06T13:51:51.684Z,99873.91
2022-12-06T13:54:05.560Z,99878.66
2022-12-06T13:56:29.473Z,99883.84
2022-12-06T13:58:40.076Z,99871.44
2022-12-06T14:00:41.834Z,99876.22
2022-12-06T14:02:46.479Z,99873.19
2022-12-06T14:04:48.400Z,99875.53
2022-12-06T14:06:52.707Z,99868.44
2022-12-06T14:09:01.004Z,99875.47
2022-12-06T14:11:29.218Z,99868.31
2022-12-06T14:13:31.414Z,99859.75
2022-12-06T14:15:36.182Z,99850.16
2022-12-06T14:20:19.996Z,99850.00
2022-12-06T14:22:25.063Z,99849.81
2022-12-06T14:24:39.921Z,99849.81
2022-12-06T14:26:41.874Z,99844.41
2022-12-06T14:28:43.983Z,99856.56
2022-12-06T14:30:46.373Z,99843.00
2022-12-06T14:32:50.770Z,99839.53
2022-12-06T14:35:06.030Z,99841.81
2022-12-06T14:37:20.613Z,99839.59
2022-12-06T14:39:28.394Z,99849.34
2022-12-06T14:41:55.598Z,99854.72
2022-12-06T14:43:57.418Z,99852.00
2022-12-06T14:46:03.570Z,99846.53
2022-12-06T14:48:05.815Z,99809.41
2022-12-06T14:50:48.112Z,99851.59
2022-12-06T14:52:59.665Z,99850.00
2022-12-06T14:55:16.457Z,99845.22
2022-12-06T14:57:24.889Z,99840.09
2022-12-06T15:00:12.760Z,99826.75
2022-12-06T15:01:55.755Z,99842.56
2022-12-06T15:04:00.398Z,99843.69
2022-12-06T15:06:23.826Z,99837.38
2022-12-06T15:08:26.023Z,99842.94
2022-12-06T15:10:30.158Z,99831.31
2022-12-06T15:12:50.842Z,99812.97
2022-12-06T15:14:52.970Z,99827.28
2022-12-06T15:17:10.480Z,99823.44
2022-12-06T15:19:17.404Z,99824.25
2022-12-06T15:21:19.263Z,99811.66
2022-12-06T15:23:36.430Z,99830.00
2022-12-06T15:25:38.822Z,99816.94
2022-12-06T15:27:40.656Z,99790.84
2022-12-06T15:29:43.135Z,99794.03
2022-12-06T15:31:52.193Z,99818.56
2022-12-06T15:33:54.998Z,99817.75
2022-12-06T15:35:59.084Z,99802.16
2022-12-06T15:38:01.078Z,99802.56
2022-12-06T15:40:04.405Z,99799.81
2022-12-06T15:42:20.401Z,99797.78
2022-12-06T15:44:25.579Z,99796.00
2022-12-06T15:46:29.444Z,99795.16
2022-12-06T15:48:36.703Z,99775.91
2022-12-06T15:50:38.939Z,99785.34
2022-12-06T15:52:41.116Z,99775.81
2022-12-06T15:54:43.470Z,99779.84
2022-12-06T15:56:45.924Z,99778.19
2022-12-06T15:58:49.102Z,99767.44
2022-12-06T16:00:50.982Z,99768.13
2022-12-06T16:02:54.636Z,99776.78
2022-12-06T16:04:56.891Z,99781.03
2022-12-06T16:06:58.783Z,99783.47
2022-12-06T16:09:00.583Z,99791.84
2022-12-06T16:11:11.791Z,99776.66
2022-12-06T16:13:23.707Z,99786.47
2022-12-06T16:15:26.903Z,99768.81
2022-12-06T16:17:29.076Z,99778.56
2022-12-06T16:19:50.878Z,99776.72
2022-12-06T16:21:55.719Z,99769.16
2022-12-06T16:24:18.023Z,99785.03
2022-12-06T16:26:20.286Z,99775.41
2022-12-06T16:28:22.158Z,99776.66
2022-12-06T16:30:33.942Z,99765.38
2022-12-06T16:32:37.623Z,99775.81
2022-12-06T16:34:39.534Z,99773.13
2022-12-06T16:36:58.464Z,99776.75
2022-12-06T16:39:04.623Z,99769.94
2022-12-06T16:41:17.566Z,99777.19
2022-12-06T16:43:20.569Z,99767.88
2022-12-06T16:45:22.443Z,99769.94
2022-12-06T16:51:50.621Z,99756.84
2022-12-06T16:53:54.253Z,99748.84
2022-12-06T16:55:56.042Z,99749.22
2022-12-06T16:57:58.443Z,99761.69
2022-12-06T17:00:00.712Z,99732.78
2022-12-06T17:02:05.907Z,99745.16
2022-12-06T17:04:11.112Z,99740.22
2022-12-06T17:06:13.001Z,99746.16
2022-12-06T17:08:20.292Z,99745.53
2022-12-06T17:10:23.760Z,99739.66
2022-12-06T17:12:27.518Z,99750.97
2022-12-06T17:14:30.947Z,99739.03
2022-12-06T17:16:35.030Z,99724.06
2022-12-06T17:18:40.755Z,99702.66
2022-12-06T17:20:42.598Z,99727.72
2022-12-06T17:22:45.499Z,99701.25
2022-12-06T17:24:47.424Z,99733.06
2022-12-06T17:26:50.134Z,99736.97
2022-12-06T17:28:52.659Z,99736.97
2022-12-06T17:30:54.532Z,99745.28
2022-12-06T17:32:56.704Z,99743.97
2022-12-06T17:34:58.736Z,99727.38
2022-12-06T17:37:02.540Z,99718.28
2022-12-06T17:39:08.801Z,99725.38
2022-12-06T17:41:41.232Z,99736.59
2022-12-06T17:43:43.309Z,99720.25
2022-12-06T17:45:45.593Z,99722.13
2022-12-06T17:47:47.527Z,99719.53
2022-12-06T17:49:51.139Z,99723.22
2022-12-06T17:51:53.743Z,99710.97
2022-12-06T17:53:57.427Z,99724.75
2022-12-06T17:56:30.546Z,99725.28
2022-12-06T17:58:32.671Z,99715.31
2022-12-06T18:00:34.751Z,99724.84
2022-12-06T18:02:37.027Z,99704.03
2022-12-06T18:04:39.124Z,99722.13
2022-12-06T18:06:42.627Z,99710.97
2022-12-06T18:08:44.991Z,99720.25
2022-12-06T18:10:46.838Z,99724.13
2022-12-06T18:12:50.306Z,99717.94
2022-12-06T18:14:52.726Z,99707.34
2022-12-06T18:16:54.599Z,99713.81
2022-12-06T18:19:00.408Z,99714.34
2022-12-06T18:21:06.070Z,99703.41
2022-12-06T18:23:09.824Z,99708.19
2022-12-06T18:25:11.720Z,99703.34
2022-12-06T18:27:13.924Z,99693.38
2022-12-06T18:29:21.347Z,99682.75
2022-12-06T18:31:25.020Z,99695.13
2022-12-06T18:33:31.000Z,99696.28
2022-12-06T18:35:36.036Z,99676.31
2022-12-06T18:37:38.581Z,99685.84
2022-12-06T18:39:40.728Z,99689.88
2022-12-06T18:41:44.814Z,99683.91
2022-12-06T18:43:47.747Z,99684.75
2022-12-06T18:46:00.527Z,99685.25
2022-12-06T18:48:02.590Z,99690.41
2022-12-06T18:50:04.981Z,99681.41
2022-12-06T18:52:07.567Z,99674.28
2022-12-06T18:54:11.192Z,99677.44
2022-12-06T18:56:19.430Z,99677.50
2022-12-06T18:58:21.689Z,99673.88
2022-12-06T19:00:23.499Z,99675.69
2022-12-06T19:02:25.729Z,99674.66
2022-12-06T19:04:28.185Z,99640.63
2022-12-06T19:06:35.132Z,99664.53
2022-12-06T19:08:43.800Z,99676.59
2022-12-06T19:10:47.038Z,99663.41
2022-12-06T19:12:48.939Z,99659.06
2022-12-06T19:14:51.282Z,99659.09
2022-12-06T19:16:54.629Z,99674.50
2022-12-06T19:19:00.689Z,99674.91
2022-12-06T19:21:02.571Z,99663.72
2022-12-06T19:23:04.872Z,99647.03
2022-12-06T19:25:06.954Z,99665.97
2022-12-06T19:27:09.595Z,99657.28
2022-12-06T19:29:16.818Z,99663.25
2022-12-06T19:31:24.866Z,99660.31
2022-12-06T19:33:27.706Z,99659.47
2022-12-06T19:35:32.475Z,99657.69
2022-12-06T19:37:34.355Z,99656.19
2022-12-06T19:39:38.769Z,99652.22
2022-12-06T19:42:03.204Z,99641.59
2022-12-06T19:44:17.580Z,99656.78
2022-12-06T19:46:26.237Z,99646.56
2022-12-06T19:48:30.746Z,99648.00
2022-12-06T19:50:39.716Z,99661.03
2022-12-06T19:52:41.900Z,99647.28
2022-12-06T19:54:45.496Z,99632.66
2022-12-06T19:56:53.465Z,99641.06
2022-12-06T19:58:57.994Z,99644.75
2022-12-06T20:01:00.104Z,99646.13
2022-12-06T20:03:02.599Z,99647.66
2022-12-06T20:05:04.828Z,99641.38
2022-12-06T20:07:07.683Z,99645.34
2022-12-06T20:09:10.151Z,99650.81
2022-12-06T20:11:32.595Z,99641.19
2022-12-06T20:13:36.298Z,99642.91
2022-12-06T20:15:38.968Z,99644.63
2022-12-06T20:17:41.096Z,99648.75
2022-12-06T20:19:46.030Z,99640.63
2022-12-06T20:21:49.048Z,99642.50
2022-12-06T20:23:53.693Z,99651.72
2022-12-06T20:25:56.989Z,99641.59
2022-12-06T20:28:02.468Z,99620.69
2022-12-06T20:30:06.712Z,99640.44
2022-12-06T20:32:09.420Z,99639.78
2022-12-06T20:34:35.347Z,99618.66
2022-12-06T20:36:38.443Z,99626.59
2022-12-06T20:38:40.486Z,99619.97
2022-12-06T20:40:42.324Z,99619.44
2022-12-06T20:42:46.346Z,99626.34
2022-12-06T20:44:50.015Z,99626.66
2022-12-06T20:46:53.735Z,99611.75
2022-12-06T20:48:58.727Z,99607.69
2022-12-06T20:51:09.419Z,99618.97
2022-12-06T20:53:11.722Z,99613.88
2022-12-06T20:55:14.110Z,99593.81
2022-12-06T20:57:16.442Z,99605.63
2022-12-06T20:59:20.269Z,99598.88
2022-12-06T21:01:26.701Z,99613.03
2022-12-06T21:03:29.474Z,99586.28
2022-12-06T21:05:31.257Z,99603.53
2022-12-06T21:07:33.530Z,99600.16
2022-12-06T21:09:35.559Z,99594.03
2022-12-06T21:11:38.647Z,99599.84
2022-12-06T21:13:41.758Z,99590.34
2022-12-06T21:15:45.661Z,99596.38
2022-12-06T21:17:48.147Z,99588.28
2022-12-06T21:19:50.056Z,99582.03
2022-12-06T21:21:57.969Z,99558.59
2022-12-06T21:24:06.026Z,99599.78
2022-12-06T21:26:10.662Z,99584.03
2022-12-06T21:28:15.272Z,99565.50
2022-12-06T21:30:17.581Z,99588.63
2022-12-06T21:32:21.081Z,99596.31
2022-12-06T21:34:23.183Z,99582.47
2022-12-06T21:36:27.994Z,99592.09
2022-12-06T21:38:31.303Z,99598.59
2022-12-06T21:40:34.086Z,99593.44
2022-12-06T21:42:37.138Z,99590.78
2022-12-06T21:44:38.972Z,99601.63
2022-12-06T21:46:40.804Z,99588.59
2022-12-06T21:48:43.750Z,99586.22
2022-12-06T21:50:45.605Z,99592.66
2022-12-06T21:52:47.846Z,99584.75
2022-12-06T21:54:51.194Z,99580.41
2022-12-06T21:56:53.256Z,99597.81
2022-12-06T21:58:55.695Z,99587.03
2022-12-06T22:01:05.382Z,99586.16
2022-12-06T22:03:07.622Z,99593.75
2022-12-06T22:05:10.228Z,99575.31
2022-12-06T22:07:12.411Z,99580.69
2022-12-06T22:09:15.391Z,99593.00
2022-12-06T22:11:20.215Z,99574.72
2022-12-06T22:13:24.028Z,99574.41
2022-12-06T22:15:28.100Z,99572.06
2022-12-06T22:17:32.608Z,99568.06
2022-12-06T22:19:34.446Z,99570.66
2022-12-06T22:21:36.287Z,99565.59
2022-12-06T22:23:38.458Z,99581.06
2022-12-06T22:25:40.297Z,99558.50
2022-12-06T22:27:42.113Z,99563.16
2022-12-06T22:29:44.272Z,99571.69
2022-12-06T22:31:46.218Z,99565.44
2022-12-06T22:33:48.850Z,99572.72
2022-12-06T22:35:51.319Z,99576.19
2022-12-06T22:37:53.553Z,99570.13
2022-12-06T22:39:55.349Z,99567.09
2022-12-06T22:41:57.658Z,99565.69
2022-12-06T22:44:01.803Z,99572.81
2022-12-06T22:46:09.220Z,99566.69
2022-12-06T22:48:11.618Z,99568.75
2022-12-06T22:50:13.447Z,99567.03
2022-12-06T22:52:16.976Z,99563.50
2022-12-06T22:54:18.813Z,99555.41
2022-12-06T22:56:21.590Z,99560.03
2022-12-06T22:58:23.391Z,99552.47
2022-12-06T23:00:25.196Z,99558.44
2022-12-06T23:02:27.426Z,99540.34
2022-12-06T23:04:29.405Z,99553.50
2022-12-06T23:06:32.186Z,99547.41
2022-12-06T23:08:34.654Z,99546.03
2022-12-06T23:10:36.515Z,99555.16
2022-12-06T23:12:39.606Z,99523.34
2022-12-06T23:14:41.789Z,99537.34
2022-12-06T23:16:45.208Z,99545.38
2022-12-06T23:18:47.153Z,99531.84
2022-12-06T23:20:49.266Z,99522.53
2022-12-06T23:22:51.091Z,99530.72
2022-12-06T23:24:55.133Z,99537.13
2022-12-06T23:26:58.318Z,99532.06
2022-12-06T23:29:00.656Z,99516.78
2022-12-06T23:31:08.361Z,99526.22
2022-12-06T23:33:10.523Z,99514.84
2022-12-06T23:35:12.314Z,99501.44
2022-12-06T23:37:14.536Z,99514.78
2022-12-06T23:39:16.489Z,99504.09
2022-12-06T23:41:24.178Z,99505.97
2022-12-06T23:43:26.347Z,99513.28
2022-12-06T23:45:28.371Z,99519.78
2022-12-06T23:47:30.766Z,99519.16
2022-12-06T23:49:32.703Z,99517.84
2022-12-06T23:51:37.281Z,99517.91
2022-12-06T23:53:39.723Z,99520.13
2022-12-06T23:55:41.551Z,99514.69
2022-12-06T23:57:43.668Z,99519.16
2022-12-06T23:59:45.423Z,99516.97
